sensor_id;sensor_type;location;lat;lon;timestamp;P1;durP1;ratioP1;P2;durP2;ratioP2
17253;SDS011;32542;52.832;13.816;2022-09-06T00:01:21;3.58;;;0.98;;
17253;SDS011;32542;52.832;13.816;2022-09-06T00:04:24;3.38;;;1.00;;
17253;SDS011;32542;52.832;13.816;2022-09-06T00:07:29;1.38;;;0.93;;
17253;SDS011;32542;52.832;13.816;2022-09-06T00:10:32;3.55;;;0.95;;
17253;SDS011;32542;52.832;13.816;2022-09-06T00:13:36;3.80;;;0.90;;
17253;SDS011;32542;52.832;13.816;2022-09-06T00:16:39;2.03;;;1.00;;
17253;SDS011;32542;52.832;13.816;2022-09-06T00:19:42;1.35;;;0.90;;
17253;SDS011;32542;52.832;13.816;2022-09-06T00:22:47;3.60;;;0.90;;
17253;SDS011;32542;52.832;13.816;2022-09-06T00:25:50;3.20;;;0.95;;
17253;SDS011;32542;52.832;13.816;2022-09-06T00:28:53;2.35;;;0.75;;
17253;SDS011;32542;52.832;13.816;2022-09-06T00:31:56;3.63;;;1.00;;
17253;SDS011;32542;52.832;13.816;2022-09-06T00:34:59;2.35;;;1.10;;
17253;SDS011;32542;52.832;13.816;2022-09-06T00:38:04;1.58;;;0.73;;
17253;SDS011;32542;52.832;13.816;2022-09-06T00:41:07;1.95;;;0.90;;
17253;SDS011;32542;52.832;13.816;2022-09-06T00:44:12;4.00;;;1.83;;
17253;SDS011;32542;52.832;13.816;2022-09-06T00:47:15;0.93;;;0.80;;
17253;SDS011;32542;52.832;13.816;2022-09-06T00:50:19;0.85;;;0.73;;
17253;SDS011;32542;52.832;13.816;2022-09-06T00:53:23;4.80;;;1.05;;
17253;SDS011;32542;52.832;13.816;2022-09-06T00:56:27;1.85;;;1.05;;
17253;SDS011;32542;52.832;13.816;2022-09-06T00:59:32;4.13;;;1.38;;
17253;SDS011;32542;52.832;13.816;2022-09-06T01:02:37;4.93;;;1.15;;
17253;SDS011;32542;52.832;13.816;2022-09-06T01:05:42;1.00;;;0.82;;
17253;SDS011;32542;52.832;13.816;2022-09-06T01:08:59;5.28;;;1.08;;
17253;SDS011;32542;52.832;13.816;2022-09-06T01:12:12;3.22;;;0.93;;
17253;SDS011;32542;52.832;13.816;2022-09-06T01:15:29;4.95;;;1.08;;
17253;SDS011;32542;52.832;13.816;2022-09-06T01:18:44;2.08;;;1.05;;
17253;SDS011;32542;52.832;13.816;2022-09-06T01:22:01;2.85;;;1.00;;
17253;SDS011;32542;52.832;13.816;2022-09-06T01:25:26;0.80;;;0.77;;
17253;SDS011;32542;52.832;13.816;2022-09-06T01:28:39;1.50;;;1.00;;
17253;SDS011;32542;52.832;13.816;2022-09-06T01:31:47;2.80;;;1.23;;
17253;SDS011;32542;52.832;13.816;2022-09-06T01:34:57;1.90;;;1.00;;
17253;SDS011;32542;52.832;13.816;2022-09-06T01:38:07;2.25;;;0.95;;
17253;SDS011;32542;52.832;13.816;2022-09-06T01:41:10;2.08;;;1.00;;
17253;SDS011;32542;52.832;13.816;2022-09-06T01:44:15;1.77;;;1.08;;
17253;SDS011;32542;52.832;13.816;2022-09-06T01:47:22;2.88;;;1.00;;
17253;SDS011;32542;52.832;13.816;2022-09-06T01:50:52;3.42;;;1.60;;
17253;SDS011;32542;52.832;13.816;2022-09-06T01:57:46;4.45;;;1.10;;
17253;SDS011;32542;52.832;13.816;2022-09-06T02:01:00;2.55;;;0.90;;
17253;SDS011;32542;52.832;13.816;2022-09-06T02:04:08;4.75;;;1.08;;
17253;SDS011;32542;52.832;13.816;2022-09-06T02:07:19;3.05;;;1.30;;
17253;SDS011;32542;52.832;13.816;2022-09-06T02:10:26;3.25;;;1.20;;
17253;SDS011;32542;52.832;13.816;2022-09-06T02:13:34;2.33;;;0.90;;
17253;SDS011;32542;52.832;13.816;2022-09-06T02:16:42;2.28;;;1.00;;
17253;SDS011;32542;52.832;13.816;2022-09-06T02:19:48;3.20;;;0.85;;
17253;SDS011;32542;52.832;13.816;2022-09-06T02:22:57;3.90;;;1.13;;
17253;SDS011;32542;52.832;13.816;2022-09-06T02:26:04;2.08;;;1.20;;
17253;SDS011;32542;52.832;13.816;2022-09-06T02:29:12;3.10;;;1.10;;
17253;SDS011;32542;52.832;13.816;2022-09-06T02:32:18;1.63;;;1.08;;
17253;SDS011;32542;52.832;13.816;2022-09-06T02:35:23;2.88;;;1.15;;
17253;SDS011;32542;52.832;13.816;2022-09-06T02:38:26;2.42;;;1.13;;
17253;SDS011;32542;52.832;13.816;2022-09-06T02:41:29;2.20;;;1.20;;
17253;SDS011;32542;52.832;13.816;2022-09-06T02:44:34;2.00;;;1.10;;
17253;SDS011;32542;52.832;13.816;2022-09-06T02:47:39;3.58;;;1.10;;
17253;SDS011;32542;52.832;13.816;2022-09-06T02:50:42;3.28;;;1.20;;
17253;SDS011;32542;52.832;13.816;2022-09-06T02:53:45;3.67;;;0.88;;
17253;SDS011;32542;52.832;13.816;2022-09-06T02:56:48;2.78;;;1.05;;
17253;SDS011;32542;52.832;13.816;2022-09-06T02:59:53;2.67;;;1.15;;
17253;SDS011;32542;52.832;13.816;2022-09-06T03:02:57;2.53;;;1.17;;
17253;SDS011;32542;52.832;13.816;2022-09-06T03:06:00;5.82;;;1.20;;
17253;SDS011;32542;52.832;13.816;2022-09-06T03:09:03;3.88;;;0.88;;
17253;SDS011;32542;52.832;13.816;2022-09-06T03:12:06;1.73;;;1.10;;
17253;SDS011;32542;52.832;13.816;2022-09-06T03:15:09;4.07;;;1.02;;
17253;SDS011;32542;52.832;13.816;2022-09-06T03:18:15;2.20;;;0.90;;
17253;SDS011;32542;52.832;13.816;2022-09-06T03:21:18;3.25;;;1.40;;
17253;SDS011;32542;52.832;13.816;2022-09-06T03:24:21;2.97;;;1.10;;
17253;SDS011;32542;52.832;13.816;2022-09-06T03:27:24;3.17;;;1.30;;
17253;SDS011;32542;52.832;13.816;2022-09-06T03:30:27;4.10;;;1.30;;
17253;SDS011;32542;52.832;13.816;2022-09-06T03:33:32;2.60;;;1.10;;
17253;SDS011;32542;52.832;13.816;2022-09-06T03:36:35;2.45;;;1.05;;
17253;SDS011;32542;52.832;13.816;2022-09-06T03:39:38;2.33;;;1.25;;
17253;SDS011;32542;52.832;13.816;2022-09-06T03:42:41;1.98;;;0.98;;
17253;SDS011;32542;52.832;13.816;2022-09-06T03:45:45;2.42;;;1.35;;
17253;SDS011;32542;52.832;13.816;2022-09-06T03:48:50;2.83;;;1.20;;
17253;SDS011;32542;52.832;13.816;2022-09-06T03:51:53;3.58;;;1.40;;
17253;SDS011;32542;52.832;13.816;2022-09-06T03:54:56;1.65;;;1.00;;
17253;SDS011;32542;52.832;13.816;2022-09-06T03:57:59;1.65;;;1.00;;
17253;SDS011;32542;52.832;13.816;2022-09-06T04:01:03;1.80;;;1.20;;
17253;SDS011;32542;52.832;13.816;2022-09-06T04:04:10;2.08;;;1.10;;
17253;SDS011;32542;52.832;13.816;2022-09-06T04:07:13;2.58;;;1.05;;
17253;SDS011;32542;52.832;13.816;2022-09-06T04:10:16;4.65;;;1.08;;
17253;SDS011;32542;52.832;13.816;2022-09-06T04:13:19;1.48;;;0.90;;
17253;SDS011;32542;52.832;13.816;2022-09-06T04:16:22;1.38;;;0.90;;
17253;SDS011;32542;52.832;13.816;2022-09-06T04:19:26;3.55;;;0.95;;
17253;SDS011;32542;52.832;13.816;2022-09-06T04:22:29;3.45;;;1.10;;
17253;SDS011;32542;52.832;13.816;2022-09-06T04:25:32;1.80;;;1.27;;
17253;SDS011;32542;52.832;13.816;2022-09-06T04:28:35;7.25;;;1.40;;
17253;SDS011;32542;52.832;13.816;2022-09-06T04:31:39;1.83;;;1.00;;
17253;SDS011;32542;52.832;13.816;2022-09-06T04:34:43;1.42;;;1.00;;
17253;SDS011;32542;52.832;13.816;2022-09-06T04:37:46;4.45;;;1.23;;
17253;SDS011;32542;52.832;13.816;2022-09-06T04:40:49;2.50;;;1.10;;
17253;SDS011;32542;52.832;13.816;2022-09-06T04:43:52;2.13;;;1.00;;
17253;SDS011;32542;52.832;13.816;2022-09-06T04:47:05;2.00;;;1.10;;
17253;SDS011;32542;52.832;13.816;2022-09-06T04:50:11;2.67;;;1.10;;
17253;SDS011;32542;52.832;13.816;2022-09-06T04:53:14;1.90;;;1.00;;
17253;SDS011;32542;52.832;13.816;2022-09-06T04:56:18;2.47;;;1.20;;
17253;SDS011;32542;52.832;13.816;2022-09-06T04:59:22;1.65;;;1.10;;
17253;SDS011;32542;52.832;13.816;2022-09-06T05:02:26;5.30;;;1.50;;
17253;SDS011;32542;52.832;13.816;2022-09-06T05:05:30;3.78;;;1.10;;
17253;SDS011;32542;52.832;13.816;2022-09-06T05:08:35;1.50;;;1.02;;
17253;SDS011;32542;52.832;13.816;2022-09-06T05:12:03;2.45;;;0.90;;
17253;SDS011;32542;52.832;13.816;2022-09-06T05:15:07;2.53;;;0.98;;
17253;SDS011;32542;52.832;13.816;2022-09-06T05:18:11;3.58;;;1.00;;
17253;SDS011;32542;52.832;13.816;2022-09-06T05:21:18;3.15;;;0.90;;
17253;SDS011;32542;52.832;13.816;2022-09-06T05:24:22;3.10;;;1.10;;
17253;SDS011;32542;52.832;13.816;2022-09-06T05:27:25;1.85;;;1.20;;
17253;SDS011;32542;52.832;13.816;2022-09-06T05:30:28;1.20;;;1.10;;
17253;SDS011;32542;52.832;13.816;2022-09-06T05:33:31;3.95;;;1.25;;
17253;SDS011;32542;52.832;13.816;2022-09-06T05:36:36;4.10;;;1.83;;
17253;SDS011;32542;52.832;13.816;2022-09-06T05:39:39;3.10;;;1.77;;
17253;SDS011;32542;52.832;13.816;2022-09-06T05:42:42;5.40;;;2.35;;
17253;SDS011;32542;52.832;13.816;2022-09-06T05:45:45;3.20;;;2.00;;
17253;SDS011;32542;52.832;13.816;2022-09-06T05:48:51;4.78;;;2.00;;
17253;SDS011;32542;52.832;13.816;2022-09-06T05:51:57;4.85;;;2.67;;
17253;SDS011;32542;52.832;13.816;2022-09-06T05:55:00;4.68;;;1.83;;
17253;SDS011;32542;52.832;13.816;2022-09-06T05:58:04;3.10;;;2.00;;
17253;SDS011;32542;52.832;13.816;2022-09-06T06:01:09;5.32;;;2.30;;
17253;SDS011;32542;52.832;13.816;2022-09-06T06:04:17;3.58;;;2.35;;
17253;SDS011;32542;52.832;13.816;2022-09-06T06:07:22;4.57;;;2.20;;
17253;SDS011;32542;52.832;13.816;2022-09-06T06:10:25;8.70;;;4.18;;
17253;SDS011;32542;52.832;13.816;2022-09-06T06:13:28;5.82;;;3.80;;
17253;SDS011;32542;52.832;13.816;2022-09-06T06:16:35;6.90;;;3.25;;
17253;SDS011;32542;52.832;13.816;2022-09-06T06:19:38;4.47;;;3.28;;
17253;SDS011;32542;52.832;13.816;2022-09-06T06:22:43;6.47;;;2.63;;
17253;SDS011;32542;52.832;13.816;2022-09-06T06:25:46;5.88;;;2.90;;
17253;SDS011;32542;52.832;13.816;2022-09-06T06:28:49;5.70;;;2.70;;
17253;SDS011;32542;52.832;13.816;2022-09-06T06:31:53;6.88;;;3.00;;
17253;SDS011;32542;52.832;13.816;2022-09-06T06:34:57;5.32;;;2.50;;
17253;SDS011;32542;52.832;13.816;2022-09-06T06:38:01;10.32;;;2.97;;
17253;SDS011;32542;52.832;13.816;2022-09-06T06:41:04;7.57;;;2.22;;
17253;SDS011;32542;52.832;13.816;2022-09-06T06:44:09;5.78;;;2.20;;
17253;SDS011;32542;52.832;13.816;2022-09-06T06:47:12;4.72;;;1.55;;
17253;SDS011;32542;52.832;13.816;2022-09-06T06:50:15;7.32;;;1.73;;
17253;SDS011;32542;52.832;13.816;2022-09-06T06:53:19;5.75;;;1.50;;
17253;SDS011;32542;52.832;13.816;2022-09-06T06:56:23;6.85;;;1.60;;
17253;SDS011;32542;52.832;13.816;2022-09-06T06:59:27;7.65;;;1.45;;
17253;SDS011;32542;52.832;13.816;2022-09-06T07:02:30;3.78;;;1.38;;
17253;SDS011;32542;52.832;13.816;2022-09-06T07:05:33;7.57;;;1.50;;
17253;SDS011;32542;52.832;13.816;2022-09-06T07:08:58;4.68;;;1.50;;
17253;SDS011;32542;52.832;13.816;2022-09-06T07:12:01;5.05;;;1.25;;
17253;SDS011;32542;52.832;13.816;2022-09-06T07:15:04;6.50;;;1.00;;
17253;SDS011;32542;52.832;13.816;2022-09-06T07:18:08;2.70;;;1.10;;
17253;SDS011;32542;52.832;13.816;2022-09-06T07:21:12;5.82;;;1.20;;
17253;SDS011;32542;52.832;13.816;2022-09-06T07:24:37;1.48;;;0.82;;
17253;SDS011;32542;52.832;13.816;2022-09-06T07:27:40;3.58;;;1.05;;
17253;SDS011;32542;52.832;13.816;2022-09-06T07:30:46;2.50;;;1.10;;
17253;SDS011;32542;52.832;13.816;2022-09-06T07:33:49;3.15;;;1.27;;
17253;SDS011;32542;52.832;13.816;2022-09-06T07:36:57;2.53;;;1.00;;
17253;SDS011;32542;52.832;13.816;2022-09-06T07:40:01;4.50;;;1.10;;
17253;SDS011;32542;52.832;13.816;2022-09-06T07:43:05;4.93;;;0.88;;
17253;SDS011;32542;52.832;13.816;2022-09-06T07:46:09;2.90;;;0.95;;
17253;SDS011;32542;52.832;13.816;2022-09-06T07:49:13;1.73;;;0.93;;
17253;SDS011;32542;52.832;13.816;2022-09-06T07:52:16;3.95;;;1.00;;
17253;SDS011;32542;52.832;13.816;2022-09-06T07:55:41;2.70;;;1.23;;
17253;SDS011;32542;52.832;13.816;2022-09-06T07:58:44;3.47;;;0.90;;
17253;SDS011;32542;52.832;13.816;2022-09-06T08:01:47;1.60;;;1.10;;
17253;SDS011;32542;52.832;13.816;2022-09-06T08:04:50;1.52;;;0.73;;
17253;SDS011;32542;52.832;13.816;2022-09-06T08:07:53;4.15;;;0.85;;
17253;SDS011;32542;52.832;13.816;2022-09-06T08:11:18;3.97;;;0.90;;
17253;SDS011;32542;52.832;13.816;2022-09-06T08:14:24;4.30;;;0.90;;
17253;SDS011;32542;52.832;13.816;2022-09-06T08:17:27;4.47;;;0.98;;
17253;SDS011;32542;52.832;13.816;2022-09-06T08:20:31;2.20;;;0.90;;
17253;SDS011;32542;52.832;13.816;2022-09-06T08:23:34;2.58;;;0.82;;
17253;SDS011;32542;52.832;13.816;2022-09-06T08:26:39;7.68;;;0.88;;
17253;SDS011;32542;52.832;13.816;2022-09-06T08:29:43;4.55;;;0.90;;
17253;SDS011;32542;52.832;13.816;2022-09-06T08:32:46;6.63;;;1.30;;
17253;SDS011;32542;52.832;13.816;2022-09-06T08:35:55;1.92;;;0.75;;
17253;SDS011;32542;52.832;13.816;2022-09-06T08:39:00;1.85;;;1.10;;
17253;SDS011;32542;52.832;13.816;2022-09-06T08:42:06;3.20;;;1.10;;
17253;SDS011;32542;52.832;13.816;2022-09-06T08:45:09;4.15;;;0.90;;
17253;SDS011;32542;52.832;13.816;2022-09-06T08:48:19;3.65;;;0.80;;
17253;SDS011;32542;52.832;13.816;2022-09-06T08:51:35;4.55;;;0.95;;
17253;SDS011;32542;52.832;13.816;2022-09-06T08:54:53;3.08;;;1.10;;
17253;SDS011;32542;52.832;13.816;2022-09-06T08:58:11;6.88;;;1.00;;
17253;SDS011;32542;52.832;13.816;2022-09-06T09:01:28;7.13;;;1.30;;
17253;SDS011;32542;52.832;13.816;2022-09-06T09:04:40;6.97;;;1.10;;
17253;SDS011;32542;52.832;13.816;2022-09-06T09:07:46;4.78;;;1.13;;
17253;SDS011;32542;52.832;13.816;2022-09-06T09:10:57;3.50;;;1.63;;
17253;SDS011;32542;52.832;13.816;2022-09-06T09:14:07;3.78;;;1.05;;
17253;SDS011;32542;52.832;13.816;2022-09-06T09:17:18;3.40;;;0.93;;
17253;SDS011;32542;52.832;13.816;2022-09-06T09:20:26;4.03;;;0.70;;
17253;SDS011;32542;52.832;13.816;2022-09-06T09:23:29;3.10;;;1.00;;
17253;SDS011;32542;52.832;13.816;2022-09-06T09:26:34;2.38;;;0.90;;
17253;SDS011;32542;52.832;13.816;2022-09-06T09:33:24;4.43;;;0.90;;
17253;SDS011;32542;52.832;13.816;2022-09-06T09:36:30;1.42;;;1.00;;
17253;SDS011;32542;52.832;13.816;2022-09-06T09:39:33;5.28;;;1.00;;
17253;SDS011;32542;52.832;13.816;2022-09-06T09:42:39;6.32;;;1.13;;
17253;SDS011;32542;52.832;13.816;2022-09-06T09:45:44;2.85;;;1.10;;
17253;SDS011;32542;52.832;13.816;2022-09-06T09:48:58;2.63;;;0.90;;
17253;SDS011;32542;52.832;13.816;2022-09-06T09:52:04;3.17;;;1.13;;
17253;SDS011;32542;52.832;13.816;2022-09-06T09:55:08;5.40;;;0.98;;
17253;SDS011;32542;52.832;13.816;2022-09-06T09:58:19;8.45;;;1.25;;
17253;SDS011;32542;52.832;13.816;2022-09-06T10:01:32;5.90;;;1.13;;
17253;SDS011;32542;52.832;13.816;2022-09-06T10:04:36;4.00;;;1.52;;
17253;SDS011;32542;52.832;13.816;2022-09-06T10:07:46;3.53;;;1.00;;
17253;SDS011;32542;52.832;13.816;2022-09-06T10:10:51;7.75;;;1.25;;
17253;SDS011;32542;52.832;13.816;2022-09-06T10:13:56;4.85;;;1.23;;
17253;SDS011;32542;52.832;13.816;2022-09-06T10:17:20;4.40;;;1.20;;
17253;SDS011;32542;52.832;13.816;2022-09-06T10:20:31;9.20;;;2.03;;
17253;SDS011;32542;52.832;13.816;2022-09-06T10:23:48;2.78;;;0.93;;
17253;SDS011;32542;52.832;13.816;2022-09-06T10:27:25;5.07;;;1.60;;
17253;SDS011;32542;52.832;13.816;2022-09-06T10:30:29;4.07;;;1.30;;
17253;SDS011;32542;52.832;13.816;2022-09-06T10:33:38;6.25;;;1.10;;
17253;SDS011;32542;52.832;13.816;2022-09-06T10:36:57;3.42;;;1.35;;
17253;SDS011;32542;52.832;13.816;2022-09-06T10:40:11;1.80;;;1.30;;
17253;SDS011;32542;52.832;13.816;2022-09-06T10:43:20;6.05;;;1.60;;
17253;SDS011;32542;52.832;13.816;2022-09-06T10:46:26;4.63;;;1.48;;
17253;SDS011;32542;52.832;13.816;2022-09-06T10:49:31;2.53;;;1.50;;
17253;SDS011;32542;52.832;13.816;2022-09-06T10:52:39;2.97;;;1.10;;
17253;SDS011;32542;52.832;13.816;2022-09-06T10:55:45;3.80;;;1.20;;
17253;SDS011;32542;52.832;13.816;2022-09-06T10:58:53;3.15;;;1.30;;
17253;SDS011;32542;52.832;13.816;2022-09-06T11:02:25;4.88;;;1.58;;
17253;SDS011;32542;52.832;13.816;2022-09-06T11:05:39;2.63;;;1.50;;
17253;SDS011;32542;52.832;13.816;2022-09-06T11:08:48;2.85;;;1.55;;
17253;SDS011;32542;52.832;13.816;2022-09-06T11:12:00;2.10;;;1.38;;
17253;SDS011;32542;52.832;13.816;2022-09-06T11:15:09;3.70;;;1.20;;
17253;SDS011;32542;52.832;13.816;2022-09-06T11:18:15;5.25;;;1.48;;
17253;SDS011;32542;52.832;13.816;2022-09-06T11:28:59;3.22;;;1.20;;
17253;SDS011;32542;52.832;13.816;2022-09-06T11:32:23;2.08;;;1.35;;
17253;SDS011;32542;52.832;13.816;2022-09-06T11:35:39;5.40;;;1.40;;
17253;SDS011;32542;52.832;13.816;2022-09-06T11:38:54;4.88;;;1.35;;
17253;SDS011;32542;52.832;13.816;2022-09-06T11:42:00;5.10;;;1.35;;
17253;SDS011;32542;52.832;13.816;2022-09-06T11:45:15;3.25;;;1.40;;
17253;SDS011;32542;52.832;13.816;2022-09-06T11:55:48;3.67;;;1.33;;
17253;SDS011;32542;52.832;13.816;2022-09-06T11:58:54;3.97;;;1.20;;
17253;SDS011;32542;52.832;13.816;2022-09-06T12:02:03;4.25;;;1.70;;
17253;SDS011;32542;52.832;13.816;2022-09-06T12:05:19;4.47;;;1.75;;
17253;SDS011;32542;52.832;13.816;2022-09-06T12:08:31;7.38;;;1.50;;
17253;SDS011;32542;52.832;13.816;2022-09-06T12:11:35;5.88;;;1.77;;
17253;SDS011;32542;52.832;13.816;2022-09-06T12:14:44;3.63;;;1.45;;
17253;SDS011;32542;52.832;13.816;2022-09-06T12:17:48;4.63;;;1.73;;
17253;SDS011;32542;52.832;13.816;2022-09-06T12:21:01;1.60;;;1.20;;
17253;SDS011;32542;52.832;13.816;2022-09-06T12:24:06;7.57;;;1.65;;
17253;SDS011;32542;52.832;13.816;2022-09-06T12:27:11;11.15;;;1.95;;
17253;SDS011;32542;52.832;13.816;2022-09-06T12:30:28;5.68;;;1.67;;
17253;SDS011;32542;52.832;13.816;2022-09-06T12:33:35;5.82;;;1.80;;
17253;SDS011;32542;52.832;13.816;2022-09-06T12:36:46;6.10;;;2.22;;
17253;SDS011;32542;52.832;13.816;2022-09-06T12:39:55;5.50;;;1.70;;
17253;SDS011;32542;52.832;13.816;2022-09-06T12:42:59;3.83;;;1.77;;
17253;SDS011;32542;52.832;13.816;2022-09-06T12:46:04;8.27;;;1.40;;
17253;SDS011;32542;52.832;13.816;2022-09-06T12:49:10;7.90;;;1.80;;
17253;SDS011;32542;52.832;13.816;2022-09-06T12:52:14;6.07;;;1.65;;
17253;SDS011;32542;52.832;13.816;2022-09-06T12:55:22;4.78;;;1.80;;
17253;SDS011;32542;52.832;13.816;2022-09-06T12:58:27;2.72;;;1.38;;
17253;SDS011;32542;52.832;13.816;2022-09-06T13:01:31;8.65;;;1.52;;
17253;SDS011;32542;52.832;13.816;2022-09-06T13:04:38;3.70;;;1.67;;
17253;SDS011;32542;52.832;13.816;2022-09-06T13:07:44;2.75;;;1.50;;
17253;SDS011;32542;52.832;13.816;2022-09-06T13:10:51;5.45;;;1.45;;
17253;SDS011;32542;52.832;13.816;2022-09-06T13:13:54;4.68;;;1.58;;
17253;SDS011;32542;52.832;13.816;2022-09-06T13:16:58;11.25;;;1.60;;
17253;SDS011;32542;52.832;13.816;2022-09-06T13:20:10;10.93;;;1.63;;
17253;SDS011;32542;52.832;13.816;2022-09-06T13:23:19;9.82;;;2.17;;
17253;SDS011;32542;52.832;13.816;2022-09-06T13:26:32;4.45;;;1.20;;
17253;SDS011;32542;52.832;13.816;2022-09-06T13:29:37;3.08;;;1.13;;
17253;SDS011;32542;52.832;13.816;2022-09-06T13:32:44;3.97;;;1.40;;
17253;SDS011;32542;52.832;13.816;2022-09-06T13:35:51;14.95;;;1.73;;
17253;SDS011;32542;52.832;13.816;2022-09-06T13:39:08;6.68;;;1.50;;
17253;SDS011;32542;52.832;13.816;2022-09-06T13:42:22;6.22;;;1.63;;
17253;SDS011;32542;52.832;13.816;2022-09-06T13:45:26;7.10;;;1.85;;
17253;SDS011;32542;52.832;13.816;2022-09-06T13:48:30;5.00;;;1.58;;
17253;SDS011;32542;52.832;13.816;2022-09-06T13:51:35;5.45;;;1.48;;
17253;SDS011;32542;52.832;13.816;2022-09-06T13:54:39;3.30;;;1.30;;
17253;SDS011;32542;52.832;13.816;2022-09-06T13:57:42;3.75;;;1.42;;
17253;SDS011;32542;52.832;13.816;2022-09-06T14:00:45;5.95;;;1.55;;
17253;SDS011;32542;52.832;13.816;2022-09-06T14:03:49;3.78;;;1.15;;
17253;SDS011;32542;52.832;13.816;2022-09-06T14:06:54;4.68;;;1.40;;
17253;SDS011;32542;52.832;13.816;2022-09-06T14:09:57;3.88;;;2.08;;
17253;SDS011;32542;52.832;13.816;2022-09-06T14:13:01;3.40;;;1.50;;
17253;SDS011;32542;52.832;13.816;2022-09-06T14:16:04;7.30;;;1.40;;
17253;SDS011;32542;52.832;13.816;2022-09-06T14:19:08;3.70;;;1.95;;
17253;SDS011;32542;52.832;13.816;2022-09-06T14:22:12;5.00;;;1.85;;
17253;SDS011;32542;52.832;13.816;2022-09-06T14:25:15;6.20;;;2.05;;
17253;SDS011;32542;52.832;13.816;2022-09-06T14:28:19;6.47;;;2.05;;
17253;SDS011;32542;52.832;13.816;2022-09-06T14:31:22;7.82;;;2.10;;
17253;SDS011;32542;52.832;13.816;2022-09-06T14:34:27;7.03;;;2.30;;
17253;SDS011;32542;52.832;13.816;2022-09-06T14:37:31;6.63;;;2.75;;
17253;SDS011;32542;52.832;13.816;2022-09-06T14:40:35;5.53;;;2.15;;
17253;SDS011;32542;52.832;13.816;2022-09-06T14:43:40;4.60;;;2.58;;
17253;SDS011;32542;52.832;13.816;2022-09-06T14:46:43;3.13;;;2.10;;
17253;SDS011;32542;52.832;13.816;2022-09-06T14:49:48;5.70;;;1.85;;
17253;SDS011;32542;52.832;13.816;2022-09-06T14:52:52;6.60;;;2.28;;
17253;SDS011;32542;52.832;13.816;2022-09-06T14:55:59;5.82;;;2.10;;
17253;SDS011;32542;52.832;13.816;2022-09-06T14:59:03;2.25;;;1.50;;
17253;SDS011;32542;52.832;13.816;2022-09-06T15:02:07;6.68;;;1.77;;
17253;SDS011;32542;52.832;13.816;2022-09-06T15:05:10;8.82;;;2.03;;
17253;SDS011;32542;52.832;13.816;2022-09-06T15:08:14;2.20;;;1.50;;
17253;SDS011;32542;52.832;13.816;2022-09-06T15:11:25;3.97;;;1.52;;
17253;SDS011;32542;52.832;13.816;2022-09-06T15:14:30;3.90;;;1.45;;
17253;SDS011;32542;52.832;13.816;2022-09-06T15:17:34;4.50;;;1.50;;
17253;SDS011;32542;52.832;13.816;2022-09-06T15:20:38;4.70;;;2.30;;
17253;SDS011;32542;52.832;13.816;2022-09-06T15:23:42;4.55;;;2.10;;
17253;SDS011;32542;52.832;13.816;2022-09-06T15:26:45;3.55;;;1.52;;
17253;SDS011;32542;52.832;13.816;2022-09-06T15:29:49;2.78;;;1.60;;
17253;SDS011;32542;52.832;13.816;2022-09-06T15:32:52;2.33;;;1.50;;
17253;SDS011;32542;52.832;13.816;2022-09-06T15:35:55;5.18;;;1.48;;
17253;SDS011;32542;52.832;13.816;2022-09-06T15:39:00;7.88;;;1.58;;
17253;SDS011;32542;52.832;13.816;2022-09-06T15:42:05;3.20;;;1.33;;
17253;SDS011;32542;52.832;13.816;2022-09-06T15:45:09;4.05;;;1.77;;
17253;SDS011;32542;52.832;13.816;2022-09-06T15:48:13;5.68;;;1.60;;
17253;SDS011;32542;52.832;13.816;2022-09-06T15:51:19;4.82;;;1.33;;
17253;SDS011;32542;52.832;13.816;2022-09-06T15:54:23;5.00;;;1.50;;
17253;SDS011;32542;52.832;13.816;2022-09-06T15:57:40;3.95;;;1.30;;
17253;SDS011;32542;52.832;13.816;2022-09-06T16:00:44;2.22;;;1.30;;
17253;SDS011;32542;52.832;13.816;2022-09-06T16:03:53;6.60;;;1.60;;
17253;SDS011;32542;52.832;13.816;2022-09-06T16:07:03;2.50;;;1.20;;
17253;SDS011;32542;52.832;13.816;2022-09-06T16:10:09;5.18;;;1.50;;
17253;SDS011;32542;52.832;13.816;2022-09-06T16:13:13;3.67;;;1.40;;
17253;SDS011;32542;52.832;13.816;2022-09-06T16:16:16;3.60;;;1.30;;
17253;SDS011;32542;52.832;13.816;2022-09-06T16:19:19;2.20;;;1.42;;
17253;SDS011;32542;52.832;13.816;2022-09-06T16:22:22;8.25;;;1.67;;
17253;SDS011;32542;52.832;13.816;2022-09-06T16:25:27;4.35;;;1.30;;
17253;SDS011;32542;52.832;13.816;2022-09-06T16:28:33;5.53;;;1.50;;
17253;SDS011;32542;52.832;13.816;2022-09-06T16:31:37;4.57;;;1.52;;
17253;SDS011;32542;52.832;13.816;2022-09-06T16:34:41;5.20;;;1.52;;
17253;SDS011;32542;52.832;13.816;2022-09-06T16:37:44;3.38;;;1.70;;
17253;SDS011;32542;52.832;13.816;2022-09-06T16:40:48;15.02;;;3.60;;
17253;SDS011;32542;52.832;13.816;2022-09-06T16:43:52;12.05;;;3.50;;
17253;SDS011;32542;52.832;13.816;2022-09-06T16:46:55;14.43;;;2.58;;
17253;SDS011;32542;52.832;13.816;2022-09-06T16:50:01;7.30;;;2.78;;
17253;SDS011;32542;52.832;13.816;2022-09-06T16:53:04;6.60;;;2.90;;
17253;SDS011;32542;52.832;13.816;2022-09-06T16:56:09;7.03;;;2.47;;
17253;SDS011;32542;52.832;13.816;2022-09-06T16:59:15;1.67;;;1.52;;
17253;SDS011;32542;52.832;13.816;2022-09-06T17:02:18;6.10;;;2.10;;
17253;SDS011;32542;52.832;13.816;2022-09-06T17:05:22;5.85;;;2.25;;
17253;SDS011;32542;52.832;13.816;2022-09-06T17:08:25;3.70;;;1.70;;
17253;SDS011;32542;52.832;13.816;2022-09-06T17:11:30;7.45;;;1.60;;
17253;SDS011;32542;52.832;13.816;2022-09-06T17:14:33;4.80;;;1.50;;
17253;SDS011;32542;52.832;13.816;2022-09-06T17:17:37;6.40;;;1.80;;
17253;SDS011;32542;52.832;13.816;2022-09-06T17:20:40;5.15;;;1.92;;
17253;SDS011;32542;52.832;13.816;2022-09-06T17:23:43;5.85;;;1.48;;
17253;SDS011;32542;52.832;13.816;2022-09-06T17:26:47;5.30;;;1.25;;
17253;SDS011;32542;52.832;13.816;2022-09-06T17:29:51;2.63;;;1.50;;
17253;SDS011;32542;52.832;13.816;2022-09-06T17:32:53;6.60;;;1.50;;
17253;SDS011;32542;52.832;13.816;2022-09-06T17:36:04;6.25;;;1.58;;
17253;SDS011;32542;52.832;13.816;2022-09-06T17:39:09;3.95;;;1.50;;
17253;SDS011;32542;52.832;13.816;2022-09-06T17:42:16;6.97;;;1.40;;
17253;SDS011;32542;52.832;13.816;2022-09-06T17:45:19;5.03;;;1.50;;
17253;SDS011;32542;52.832;13.816;2022-09-06T17:48:22;1.80;;;1.40;;
17253;SDS011;32542;52.832;13.816;2022-09-06T17:51:26;3.47;;;1.40;;
17253;SDS011;32542;52.832;13.816;2022-09-06T17:54:29;3.80;;;1.55;;
17253;SDS011;32542;52.832;13.816;2022-09-06T17:57:34;4.65;;;1.40;;
17253;SDS011;32542;52.832;13.816;2022-09-06T18:00:37;3.83;;;1.63;;
17253;SDS011;32542;52.832;13.816;2022-09-06T18:03:41;4.53;;;1.70;;
17253;SDS011;32542;52.832;13.816;2022-09-06T18:06:46;3.03;;;1.60;;
17253;SDS011;32542;52.832;13.816;2022-09-06T18:09:49;5.72;;;1.90;;
17253;SDS011;32542;52.832;13.816;2022-09-06T18:12:54;2.65;;;1.70;;
17253;SDS011;32542;52.832;13.816;2022-09-06T18:15:57;6.28;;;1.55;;
17253;SDS011;32542;52.832;13.816;2022-09-06T18:19:02;3.67;;;1.60;;
17253;SDS011;32542;52.832;13.816;2022-09-06T18:22:06;4.03;;;1.50;;
17253;SDS011;32542;52.832;13.816;2022-09-06T18:25:10;3.05;;;1.75;;
17253;SDS011;32542;52.832;13.816;2022-09-06T18:28:14;5.13;;;1.80;;
17253;SDS011;32542;52.832;13.816;2022-09-06T18:31:18;4.60;;;1.95;;
17253;SDS011;32542;52.832;13.816;2022-09-06T18:34:22;3.08;;;1.80;;
17253;SDS011;32542;52.832;13.816;2022-09-06T18:37:25;6.13;;;1.80;;
17253;SDS011;32542;52.832;13.816;2022-09-06T18:40:29;3.88;;;1.63;;
17253;SDS011;32542;52.832;13.816;2022-09-06T18:43:34;6.03;;;1.67;;
17253;SDS011;32542;52.832;13.816;2022-09-06T18:46:39;5.05;;;1.73;;